sensor_id;sensor_type;location;lat;lon;timestamp;pressure;altitude;pressure_sealevel;temperature;humidity
75815;BME280;70031;45.570;14.228;2024-01-15T00:02:02;95865.50;;;4.15;100.00
75815;BME280;70031;45.570;14.228;2024-01-15T00:04:06;95867.94;;;4.07;100.00
75815;BME280;70031;45.570;14.228;2024-01-15T00:06:06;95865.28;;;4.02;100.00
75815;BME280;70031;45.570;14.228;2024-01-15T00:08:15;95855.94;;;4.04;100.00
75815;BME280;70031;45.570;14.228;2024-01-15T00:10:15;95848.53;;;3.91;100.00
75815;BME280;70031;45.570;14.228;2024-01-15T00:12:22;95846.88;;;4.05;100.00
75815;BME280;70031;45.570;14.228;2024-01-15T00:14:22;95840.50;;;4.06;100.00
75815;BME280;70031;45.570;14.228;2024-01-15T00:16:22;95842.09;;;4.07;100.00
75815;BME280;70031;45.570;14.228;2024-01-15T00:18:23;95841.31;;;4.07;100.00
75815;BME280;70031;45.570;14.228;2024-01-15T00:20:32;95836.00;;;3.97;100.00
75815;BME280;70031;45.570;14.228;2024-01-15T00:22:35;95836.00;;;3.97;100.00
75815;BME280;70031;45.570;14.228;2024-01-15T00:24:41;95835.47;;;4.00;100.00
75815;BME280;70031;45.570;14.228;2024-01-15T00:26:50;95828.28;;;4.00;100.00
75815;BME280;70031;45.570;14.228;2024-01-15T00:28:56;95832.81;;;4.00;100.00
75815;BME280;70031;45.570;14.228;2024-01-15T00:31:03;95833.56;;;4.05;100.00
75815;BME280;70031;45.570;14.228;2024-01-15T00:33:09;95835.22;;;3.86;100.00
75815;BME280;70031;45.570;14.228;2024-01-15T00:35:12;95827.81;;;3.73;100.00
75815;BME280;70031;45.570;14.228;2024-01-15T00:39:22;95810.75;;;3.79;100.00
75815;BME280;70031;45.570;14.228;2024-01-15T00:41:35;95803.81;;;3.88;100.00
75815;BME280;70031;45.570;14.228;2024-01-15T00:43:36;95801.38;;;4.02;100.00
75815;BME280;70031;45.570;14.228;2024-01-15T00:45:42;95806.16;;;4.10;100.00
75815;BME280;70031;45.570;14.228;2024-01-15T00:47:51;95792.28;;;4.18;100.00
75815;BME280;70031;45.570;14.228;2024-01-15T00:49:51;95796.28;;;4.15;100.00
75815;BME280;70031;45.570;14.228;2024-01-15T00:51:55;95789.13;;;4.06;100.00
75815;BME280;70031;45.570;14.228;2024-01-15T00:54:18;95788.03;;;4.12;100.00
75815;BME280;70031;45.570;14.228;2024-01-15T00:56:18;95786.00;;;3.78;100.00
75815;BME280;70031;45.570;14.228;2024-01-15T01:01:00;95771.81;;;4.08;100.00
75815;BME280;70031;45.570;14.228;2024-01-15T01:03:12;95771.34;;;3.86;100.00
75815;BME280;70031;45.570;14.228;2024-01-15T01:05:15;95772.72;;;3.78;100.00
75815;BME280;70031;45.570;14.228;2024-01-15T01:07:22;95772.66;;;3.88;100.00
75815;BME280;70031;45.570;14.228;2024-01-15T01:09:27;95776.16;;;3.89;100.00
75815;BME280;70031;45.570;14.228;2024-01-15T01:11:32;95766.03;;;3.86;100.00
75815;BME280;70031;45.570;14.228;2024-01-15T01:13:32;95762.34;;;3.82;100.00
75815;BME280;70031;45.570;14.228;2024-01-15T01:15:42;95764.19;;;3.81;100.00
75815;BME280;70031;45.570;14.228;2024-01-15T01:17:42;95772.97;;;3.77;100.00
75815;BME280;70031;45.570;14.228;2024-01-15T01:19:51;95764.72;;;3.78;100.00
75815;BME280;70031;45.570;14.228;2024-01-15T01:22:04;95766.06;;;3.76;100.00
75815;BME280;70031;45.570;14.228;2024-01-15T01:24:10;95758.88;;;3.81;100.00
75815;BME280;70031;45.570;14.228;2024-01-15T01:26:10;95760.75;;;3.76;100.00
75815;BME280;70031;45.570;14.228;2024-01-15T01:28:17;95755.44;;;3.76;100.00
75815;BME280;70031;45.570;14.228;2024-01-15T01:30:28;95758.88;;;3.71;100.00
75815;BME280;70031;45.570;14.228;2024-01-15T01:32:43;95756.22;;;3.76;100.00
75815;BME280;70031;45.570;14.228;2024-01-15T01:34:44;95754.81;;;3.99;100.00
75815;BME280;70031;45.570;14.228;2024-01-15T01:36:50;95757.47;;;3.99;100.00
75815;BME280;70031;45.570;14.228;2024-01-15T01:38:50;95748.13;;;4.07;100.00
75815;BME280;70031;45.570;14.228;2024-01-15T01:40:51;95746.50;;;4.16;100.00
75815;BME280;70031;45.570;14.228;2024-01-15T01:43:04;95739.81;;;4.13;100.00
75815;BME280;70031;45.570;14.228;2024-01-15T01:45:13;95729.22;;;4.08;100.00
75815;BME280;70031;45.570;14.228;2024-01-15T01:47:19;95730.53;;;4.11;100.00
75815;BME280;70031;45.570;14.228;2024-01-15T01:51:47;95730.00;;;4.14;100.00
75815;BME280;70031;45.570;14.228;2024-01-15T01:54:03;95721.22;;;4.08;100.00
75815;BME280;70031;45.570;14.228;2024-01-15T01:56:07;95720.50;;;3.98;100.00
75815;BME280;70031;45.570;14.228;2024-01-15T01:58:14;95720.88;;;3.55;100.00
75815;BME280;70031;45.570;14.228;2024-01-15T02:00:23;95715.88;;;3.49;100.00
75815;BME280;70031;45.570;14.228;2024-01-15T02:02:25;95710.50;;;3.64;100.00
75815;BME280;70031;45.570;14.228;2024-01-15T02:04:31;95696.94;;;3.65;100.00
75815;BME280;70031;45.570;14.228;2024-01-15T02:06:38;95697.72;;;3.66;100.00
75815;BME280;70031;45.570;14.228;2024-01-15T02:08:56;95690.25;;;3.73;100.00
75815;BME280;70031;45.570;14.228;2024-01-15T02:11:02;95684.38;;;3.81;100.00
75815;BME280;70031;45.570;14.228;2024-01-15T02:13:11;95684.31;;;3.86;100.00
75815;BME280;70031;45.570;14.228;2024-01-15T02:15:20;95673.75;;;3.71;100.00
75815;BME280;70031;45.570;14.228;2024-01-15T02:17:21;95672.44;;;3.74;100.00
75815;BME280;70031;45.570;14.228;2024-01-15T02:19:24;95665.53;;;3.62;100.00
75815;BME280;70031;45.570;14.228;2024-01-15T02:21:24;95677.84;;;3.43;100.00
75815;BME280;70031;45.570;14.228;2024-01-15T02:23:39;95677.84;;;3.38;100.00
75815;BME280;70031;45.570;14.228;2024-01-15T02:25:51;95674.41;;;3.37;100.00
75815;BME280;70031;45.570;14.228;2024-01-15T02:27:51;95676.25;;;3.42;100.00
75815;BME280;70031;45.570;14.228;2024-01-15T02:29:55;95672.28;;;3.40;100.00
75815;BME280;70031;45.570;14.228;2024-01-15T02:32:05;95672.75;;;3.57;100.00
75815;BME280;70031;45.570;14.228;2024-01-15T02:34:11;95671.97;;;3.46;100.00
75815;BME280;70031;45.570;14.228;2024-01-15T02:36:17;95673.59;;;3.37;100.00
75815;BME280;70031;45.570;14.228;2024-01-15T02:38:21;95672.84;;;3.26;100.00
75815;BME280;70031;45.570;14.228;2024-01-15T02:46:48;95646.72;;;3.49;100.00
75815;BME280;70031;45.570;14.228;2024-01-15T02:48:54;95647.75;;;3.58;100.00
75815;BME280;70031;45.570;14.228;2024-01-15T02:51:06;95643.19;;;3.69;100.00
75815;BME280;70031;45.570;14.228;2024-01-15T02:53:09;95635.28;;;3.48;100.00
75815;BME280;70031;45.570;14.228;2024-01-15T02:57:50;95628.56;;;3.61;100.00
75815;BME280;70031;45.570;14.228;2024-01-15T02:59:51;95623.47;;;3.70;100.00
75815;BME280;70031;45.570;14.228;2024-01-15T03:01:56;95630.94;;;3.73;100.00
75815;BME280;70031;45.570;14.228;2024-01-15T03:03:59;95632.25;;;3.70;100.00
75815;BME280;70031;45.570;14.228;2024-01-15T03:06:01;95629.34;;;3.66;100.00
75815;BME280;70031;45.570;14.228;2024-01-15T03:08:13;95635.75;;;3.65;100.00
75815;BME280;70031;45.570;14.228;2024-01-15T03:10:22;95625.63;;;3.67;100.00
75815;BME280;70031;45.570;14.228;2024-01-15T03:12:36;95630.16;;;3.67;100.00
75815;BME280;70031;45.570;14.228;2024-01-15T03:14:45;95620.50;;;3.81;100.00
75815;BME280;70031;45.570;14.228;2024-01-15T03:16:57;95616.47;;;3.89;100.00
75815;BME280;70031;45.570;14.228;2024-01-15T03:19:13;95618.47;;;4.07;100.00
75815;BME280;70031;45.570;14.228;2024-01-15T03:21:13;95616.75;;;4.21;100.00
75815;BME280;70031;45.570;14.228;2024-01-15T03:23:13;95613.59;;;4.19;100.00
75815;BME280;70031;45.570;14.228;2024-01-15T03:25:17;95606.00;;;4.03;100.00
75815;BME280;70031;45.570;14.228;2024-01-15T03:27:19;95603.88;;;4.00;100.00
75815;BME280;70031;45.570;14.228;2024-01-15T03:29:23;95597.72;;;4.04;100.00
75815;BME280;70031;45.570;14.228;2024-01-15T03:31:32;95604.09;;;4.08;100.00
75815;BME280;70031;45.570;14.228;2024-01-15T03:33:35;95603.03;;;4.04;100.00
75815;BME280;70031;45.570;14.228;2024-01-15T03:35:35;95587.38;;;3.53;100.00
75815;BME280;70031;45.570;14.228;2024-01-15T03:37:51;95591.69;;;3.39;100.00
75815;BME280;70031;45.570;14.228;2024-01-15T03:40:09;95583.63;;;3.64;100.00
75815;BME280;70031;45.570;14.228;2024-01-15T03:42:24;95582.91;;;3.49;100.00
75815;BME280;70031;45.570;14.228;2024-01-15T03:44:25;95582.69;;;3.40;100.00
75815;BME280;70031;45.570;14.228;2024-01-15T03:46:25;95574.38;;;3.47;100.00
75815;BME280;70031;45.570;14.228;2024-01-15T03:48:28;95575.66;;;3.59;100.00
75815;BME280;70031;45.570;14.228;2024-01-15T03:52:46;95572.56;;;3.42;100.00
75815;BME280;70031;45.570;14.228;2024-01-15T03:54:46;95566.59;;;3.65;100.00
75815;BME280;70031;45.570;14.228;2024-01-15T03:57:09;95557.75;;;3.75;100.00
75815;BME280;70031;45.570;14.228;2024-01-15T03:59:09;95549.72;;;3.80;100.00
75815;BME280;70031;45.570;14.228;2024-01-15T04:01:10;95547.75;;;3.96;100.00
75815;BME280;70031;45.570;14.228;2024-01-15T04:03:10;95537.78;;;4.12;100.00
75815;BME280;70031;45.570;14.228;2024-01-15T04:05:14;95531.94;;;4.10;100.00
75815;BME280;70031;45.570;14.228;2024-01-15T04:09:53;95539.56;;;4.21;100.00
75815;BME280;70031;45.570;14.228;2024-01-15T04:11:57;95529.25;;;4.15;100.00
75815;BME280;70031;45.570;14.228;2024-01-15T04:14:02;95522.00;;;4.20;100.00
75815;BME280;70031;45.570;14.228;2024-01-15T04:16:06;95525.50;;;4.16;100.00
75815;BME280;70031;45.570;14.228;2024-01-15T04:18:06;95541.59;;;4.01;100.00
75815;BME280;70031;45.570;14.228;2024-01-15T04:20:12;95532.22;;;4.08;100.00
75815;BME280;70031;45.570;14.228;2024-01-15T04:22:18;95522.88;;;3.77;100.00
75815;BME280;70031;45.570;14.228;2024-01-15T04:24:24;95518.41;;;3.67;100.00
75815;BME280;70031;45.570;14.228;2024-01-15T04:26:27;95529.34;;;3.60;100.00
75815;BME280;70031;45.570;14.228;2024-01-15T04:28:42;95523.75;;;3.62;100.00
75815;BME280;70031;45.570;14.228;2024-01-15T04:30:43;95532.00;;;3.65;100.00
75815;BME280;70031;45.570;14.228;2024-01-15T04:32:44;95530.63;;;3.73;100.00
75815;BME280;70031;45.570;14.228;2024-01-15T04:34:56;95531.13;;;3.75;100.00
75815;BME280;70031;45.570;14.228;2024-01-15T04:37:05;95530.38;;;3.70;100.00
75815;BME280;70031;45.570;14.228;2024-01-15T04:39:05;95534.59;;;3.71;100.00
75815;BME280;70031;45.570;14.228;2024-01-15T04:41:06;95528.25;;;3.66;100.00
75815;BME280;70031;45.570;14.228;2024-01-15T04:43:09;95527.25;;;3.57;100.00
75815;BME280;70031;45.570;14.228;2024-01-15T04:45:15;95514.00;;;3.47;100.00
75815;BME280;70031;45.570;14.228;2024-01-15T04:47:22;95517.72;;;3.46;100.00
75815;BME280;70031;45.570;14.228;2024-01-15T04:49:25;95512.19;;;3.43;100.00
75815;BME280;70031;45.570;14.228;2024-01-15T04:51:27;95510.31;;;3.48;100.00
75815;BME280;70031;45.570;14.228;2024-01-15T04:53:36;95504.13;;;3.53;100.00
75815;BME280;70031;45.570;14.228;2024-01-15T04:55:45;95510.81;;;3.50;100.00
75815;BME280;70031;45.570;14.228;2024-01-15T04:57:45;95497.44;;;3.60;100.00
75815;BME280;70031;45.570;14.228;2024-01-15T04:59:53;95508.53;;;3.73;100.00
75815;BME280;70031;45.570;14.228;2024-01-15T05:01:54;95502.38;;;3.77;100.00
75815;BME280;70031;45.570;14.228;2024-01-15T05:03:54;95505.06;;;3.72;100.00
75815;BME280;70031;45.570;14.228;2024-01-15T05:05:57;95510.16;;;3.69;100.00
75815;BME280;70031;45.570;14.228;2024-01-15T05:07:58;95499.38;;;3.50;100.00
75815;BME280;70031;45.570;14.228;2024-01-15T05:10:05;95494.97;;;3.30;100.00
75815;BME280;70031;45.570;14.228;2024-01-15T05:12:07;95491.09;;;3.56;100.00
75815;BME280;70031;45.570;14.228;2024-01-15T05:14:16;95490.53;;;3.59;100.00
75815;BME280;70031;45.570;14.228;2024-01-15T05:16:17;95492.03;;;3.71;100.00
75815;BME280;70031;45.570;14.228;2024-01-15T05:18:20;95490.16;;;3.76;100.00
75815;BME280;70031;45.570;14.228;2024-01-15T05:20:20;95492.03;;;3.71;100.00
75815;BME280;70031;45.570;14.228;2024-01-15T05:22:30;95485.69;;;3.66;100.00
75815;BME280;70031;45.570;14.228;2024-01-15T05:24:30;95488.31;;;3.72;100.00
75815;BME280;70031;45.570;14.228;2024-01-15T05:26:33;95481.38;;;3.76;100.00
75815;BME280;70031;45.570;14.228;2024-01-15T05:28:42;95475.00;;;3.72;100.00
75815;BME280;70031;45.570;14.228;2024-01-15T05:35:21;95481.09;;;3.38;100.00
75815;BME280;70031;45.570;14.228;2024-01-15T05:37:21;95480.56;;;3.41;100.00
75815;BME280;70031;45.570;14.228;2024-01-15T05:39:27;95480.19;;;3.53;100.00
75815;BME280;70031;45.570;14.228;2024-01-15T05:41:31;95488.09;;;3.63;100.00
75815;BME280;70031;45.570;14.228;2024-01-15T05:43:31;95493.75;;;3.56;100.00
75815;BME280;70031;45.570;14.228;2024-01-15T05:45:38;95490.19;;;3.32;100.00
75815;BME280;70031;45.570;14.228;2024-01-15T05:47:44;95487.84;;;3.20;100.00
75815;BME280;70031;45.570;14.228;2024-01-15T05:49:44;95486.09;;;3.45;100.00
75815;BME280;70031;45.570;14.228;2024-01-15T05:51:48;95491.16;;;3.80;100.00
75815;BME280;70031;45.570;14.228;2024-01-15T05:53:49;95493.81;;;3.85;100.00
75815;BME280;70031;45.570;14.228;2024-01-15T05:55:58;95492.31;;;3.74;100.00
75815;BME280;70031;45.570;14.228;2024-01-15T05:57:58;95494.88;;;3.84;100.00
75815;BME280;70031;45.570;14.228;2024-01-15T06:00:04;95496.03;;;3.73;100.00
75815;BME280;70031;45.570;14.228;2024-01-15T06:02:08;95504.59;;;3.65;100.00
75815;BME280;70031;45.570;14.228;2024-01-15T06:04:08;95500.38;;;3.59;100.00
75815;BME280;70031;45.570;14.228;2024-01-15T06:06:26;95501.81;;;3.41;100.00
75815;BME280;70031;45.570;14.228;2024-01-15T06:08:26;95489.25;;;3.02;100.00
75815;BME280;70031;45.570;14.228;2024-01-15T06:10:33;95497.34;;;2.82;100.00
75815;BME280;70031;45.570;14.228;2024-01-15T06:15:07;95478.69;;;2.92;100.00
75815;BME280;70031;45.570;14.228;2024-01-15T06:17:19;95477.28;;;3.10;100.00
75815;BME280;70031;45.570;14.228;2024-01-15T06:19:19;95477.94;;;3.31;100.00
75815;BME280;70031;45.570;14.228;2024-01-15T06:21:19;95476.84;;;3.37;100.00
75815;BME280;70031;45.570;14.228;2024-01-15T06:23:29;95474.91;;;3.03;100.00
75815;BME280;70031;45.570;14.228;2024-01-15T06:25:29;95477.63;;;2.93;100.00
75815;BME280;70031;45.570;14.228;2024-01-15T06:27:29;95472.28;;;2.98;100.00
75815;BME280;70031;45.570;14.228;2024-01-15T06:29:32;95472.75;;;3.05;100.00
75815;BME280;70031;45.570;14.228;2024-01-15T06:31:32;95462.91;;;3.06;100.00
75815;BME280;70031;45.570;14.228;2024-01-15T06:33:51;95465.59;;;3.06;100.00
75815;BME280;70031;45.570;14.228;2024-01-15T06:35:52;95462.13;;;3.10;100.00
75815;BME280;70031;45.570;14.228;2024-01-15T06:37:55;95465.72;;;3.30;100.00
75815;BME280;70031;45.570;14.228;2024-01-15T06:39:58;95466.13;;;3.47;100.00
75815;BME280;70031;45.570;14.228;2024-01-15T06:42:13;95473.81;;;3.54;100.00
75815;BME280;70031;45.570;14.228;2024-01-15T06:44:13;95474.84;;;3.58;100.00
75815;BME280;70031;45.570;14.228;2024-01-15T06:46:23;95476.34;;;3.74;100.00
75815;BME280;70031;45.570;14.228;2024-01-15T06:48:29;95474.41;;;3.80;100.00
75815;BME280;70031;45.570;14.228;2024-01-15T06:50:32;95474.81;;;3.63;100.00
75815;BME280;70031;45.570;14.228;2024-01-15T06:52:32;95469.50;;;3.19;100.00
75815;BME280;70031;45.570;14.228;2024-01-15T06:54:35;95467.63;;;3.24;100.00
75815;BME280;70031;45.570;14.228;2024-01-15T06:56:41;95454.00;;;3.36;100.00
75815;BME280;70031;45.570;14.228;2024-01-15T06:58:48;95464.22;;;3.58;100.00
75815;BME280;70031;45.570;14.228;2024-01-15T07:00:50;95461.50;;;3.63;100.00
75815;BME280;70031;45.570;14.228;2024-01-15T07:02:51;95471.91;;;3.59;100.00
75815;BME280;70031;45.570;14.228;2024-01-15T07:04:51;95463.09;;;3.64;100.00
75815;BME280;70031;45.570;14.228;2024-01-15T07:06:55;95472.28;;;3.82;100.00
75815;BME280;70031;45.570;14.228;2024-01-15T07:09:02;95468.78;;;3.86;100.00
75815;BME280;70031;45.570;14.228;2024-01-15T07:11:03;95480.75;;;3.89;100.00
75815;BME280;70031;45.570;14.228;2024-01-15T07:13:09;95480.69;;;3.94;100.00
75815;BME280;70031;45.570;14.228;2024-01-15T07:15:10;95461.34;;;3.83;100.00
75815;BME280;70031;45.570;14.228;2024-01-15T07:17:10;95464.09;;;3.73;100.00
75815;BME280;70031;45.570;14.228;2024-01-15T07:19:22;95473.78;;;3.93;100.00
75815;BME280;70031;45.570;14.228;2024-01-15T07:21:25;95460.19;;;3.65;100.00
75815;BME280;70031;45.570;14.228;2024-01-15T07:23:26;95465.81;;;3.93;100.00
75815;BME280;70031;45.570;14.228;2024-01-15T07:25:26;95460.19;;;3.94;100.00
75815;BME280;70031;45.570;14.228;2024-01-15T07:27:40;95463.22;;;3.83;100.00
75815;BME280;70031;45.570;14.228;2024-01-15T07:31:55;95447.88;;;3.70;100.00
75815;BME280;70031;45.570;14.228;2024-01-15T07:33:55;95458.53;;;3.70;100.00
75815;BME280;70031;45.570;14.228;2024-01-15T07:36:04;95454.78;;;3.71;100.00
75815;BME280;70031;45.570;14.228;2024-01-15T07:38:05;95455.97;;;3.88;100.00
75815;BME280;70031;45.570;14.228;2024-01-15T07:40:13;95462.06;;;3.94;100.00
75815;BME280;70031;45.570;14.228;2024-01-15T07:42:22;95459.31;;;4.04;100.00
75815;BME280;70031;45.570;14.228;2024-01-15T07:44:31;95457.84;;;4.22;100.00
75815;BME280;70031;45.570;14.228;2024-01-15T07:46:31;95450.34;;;4.24;100.00
75815;BME280;70031;45.570;14.228;2024-01-15T07:48:40;95464.28;;;4.16;100.00
75815;BME280;70031;45.570;14.228;2024-01-15T07:50:46;95457.38;;;4.15;100.00
75815;BME280;70031;45.570;14.228;2024-01-15T07:52:46;95460.72;;;4.26;100.00
75815;BME280;70031;45.570;14.228;2024-01-15T07:54:53;95461.59;;;4.16;100.00
75815;BME280;70031;45.570;14.228;2024-01-15T07:57:05;95462.53;;;4.01;100.00
75815;BME280;70031;45.570;14.228;2024-01-15T07:59:08;95473.47;;;4.00;100.00
75815;BME280;70031;45.570;14.228;2024-01-15T08:01:08;95469.44;;;4.02;100.00
75815;BME280;70031;45.570;14.228;2024-01-15T08:03:14;95476.66;;;3.97;100.00
75815;BME280;70031;45.570;14.228;2024-01-15T08:05:27;95473.63;;;3.79;100.00
75815;BME280;70031;45.570;14.228;2024-01-15T08:07:34;95474.34;;;3.90;100.00
75815;BME280;70031;45.570;14.228;2024-01-15T08:09:34;95481.56;;;3.84;100.00
75815;BME280;70031;45.570;14.228;2024-01-15T08:11:35;95471.00;;;3.74;100.00
75815;BME280;70031;45.570;14.228;2024-01-15T08:13:38;95479.31;;;3.67;100.00
75815;BME280;70031;45.570;14.228;2024-01-15T08:15:38;95483.72;;;3.82;100.00
75815;BME280;70031;45.570;14.228;2024-01-15T08:17:39;95485.06;;;3.80;100.00
75815;BME280;70031;45.570;14.228;2024-01-15T08:19:39;95481.41;;;3.71;100.00
75815;BME280;70031;45.570;14.228;2024-01-15T08:24:23;95476.97;;;3.61;100.00
75815;BME280;70031;45.570;14.228;2024-01-15T08:26:24;95484.38;;;3.64;100.00
75815;BME280;70031;45.570;14.228;2024-01-15T08:30:27;95492.59;;;3.67;100.00
75815;BME280;70031;45.570;14.228;2024-01-15T08:32:27;95481.59;;;3.79;100.00
75815;BME280;70031;45.570;14.228;2024-01-15T08:34:30;95491.25;;;4.04;100.00
75815;BME280;70031;45.570;14.228;2024-01-15T08:36:31;95487.13;;;4.46;100.00
75815;BME280;70031;45.570;14.228;2024-01-15T08:38:31;95492.13;;;4.53;100.00
75815;BME280;70031;45.570;14.228;2024-01-15T08:40:38;95490.78;;;4.55;100.00
75815;BME280;70031;45.570;14.228;2024-01-15T08:42:41;95491.84;;;4.54;100.00
75815;BME280;70031;45.570;14.228;2024-01-15T08:44:41;95492.25;;;4.66;100.00
75815;BME280;70031;45.570;14.228;2024-01-15T08:46:43;95492.88;;;4.58;100.00
75815;BME280;70031;45.570;14.228;2024-01-15T08:48:43;95493.06;;;4.38;100.00
75815;BME280;70031;45.570;14.228;2024-01-15T08:50:46;95485.97;;;4.28;100.00
75815;BME280;70031;45.570;14.228;2024-01-15T08:52:49;95478.63;;;4.44;100.00
75815;BME280;70031;45.570;14.228;2024-01-15T08:54:49;95474.53;;;4.57;100.00
75815;BME280;70031;45.570;14.228;2024-01-15T08:56:53;95486.25;;;4.56;100.00
75815;BME280;70031;45.570;14.228;2024-01-15T08:58:59;95486.03;;;4.76;100.00
75815;BME280;70031;45.570;14.228;2024-01-15T09:00:59;95473.72;;;4.80;100.00
75815;BME280;70031;45.570;14.228;2024-01-15T09:03:00;95476.13;;;5.00;100.00
75815;BME280;70031;45.570;14.228;2024-01-15T09:05:00;95477.72;;;5.01;100.00
75815;BME280;70031;45.570;14.228;2024-01-15T09:07:07;95470.53;;;5.21;100.00
75815;BME280;70031;45.570;14.228;2024-01-15T09:09:19;95468.03;;;4.87;100.00
75815;BME280;70031;45.570;14.228;2024-01-15T09:11:42;95480.38;;;4.54;100.00
75815;BME280;70031;45.570;14.228;2024-01-15T09:13:43;95482.88;;;4.45;100.00
75815;BME280;70031;45.570;14.228;2024-01-15T09:15:43;95475.47;;;4.42;100.00
75815;BME280;70031;45.570;14.228;2024-01-15T09:20:03;95473.44;;;4.58;100.00
75815;BME280;70031;45.570;14.228;2024-01-15T09:22:14;95476.59;;;4.60;100.00
75815;BME280;70031;45.570;14.228;2024-01-15T09:24:18;95473.38;;;4.63;100.00
75815;BME280;70031;45.570;14.228;2024-01-15T09:28:46;95472.97;;;4.74;100.00
75815;BME280;70031;45.570;14.228;2024-01-15T09:30:46;95467.38;;;4.76;100.00
75815;BME280;70031;45.570;14.228;2024-01-15T09:32:56;95464.56;;;4.86;100.00
75815;BME280;70031;45.570;14.228;2024-01-15T09:35:08;95464.34;;;4.83;100.00
75815;BME280;70031;45.570;14.228;2024-01-15T09:37:10;95469.41;;;4.84;100.00
75815;BME280;70031;45.570;14.228;2024-01-15T09:39:10;95465.25;;;4.97;100.00
75815;BME280;70031;45.570;14.228;2024-01-15T09:41:19;95458.31;;;4.96;100.00
75815;BME280;70031;45.570;14.228;2024-01-15T09:43:19;95462.00;;;5.00;100.00
75815;BME280;70031;45.570;14.228;2024-01-15T09:45:32;95460.13;;;5.00;100.00
75815;BME280;70031;45.570;14.228;2024-01-15T09:49:52;95447.81;;;5.04;100.00
75815;BME280;70031;45.570;14.228;2024-01-15T09:51:52;95454.13;;;5.14;100.00
75815;BME280;70031;45.570;14.228;2024-01-15T09:53:53;95446.53;;;5.21;100.00
75815;BME280;70031;45.570;14.228;2024-01-15T09:56:05;95448.34;;;5.25;100.00
75815;BME280;70031;45.570;14.228;2024-01-15T09:58:11;95448.94;;;5.22;100.00
75815;BME280;70031;45.570;14.228;2024-01-15T10:00:18;95446.16;;;5.27;100.00
75815;BME280;70031;45.570;14.228;2024-01-15T10:02:25;95447.91;;;5.37;100.00
75815;BME280;70031;45.570;14.228;2024-01-15T10:04:34;95443.78;;;5.45;100.00
75815;BME280;70031;45.570;14.228;2024-01-15T10:06:46;95441.84;;;5.50;100.00
75815;BME280;70031;45.570;14.228;2024-01-15T10:08:54;95439.13;;;5.55;100.00
75815;BME280;70031;45.570;14.228;2024-01-15T10:11:00;95436.16;;;5.57;100.00
75815;BME280;70031;45.570;14.228;2024-01-15T10:13:03;95433.38;;;5.62;100.00
75815;BME280;70031;45.570;14.228;2024-01-15T10:15:10;95431.75;;;5.66;100.00
75815;BME280;70031;45.570;14.228;2024-01-15T10:17:14;95433.69;;;5.60;100.00
75815;BME280;70031;45.570;14.228;2024-01-15T10:19:15;95436.00;;;5.67;100.00
75815;BME280;70031;45.570;14.228;2024-01-15T10:21:27;95431.06;;;5.74;100.00
75815;BME280;70031;45.570;14.228;2024-01-15T10:23:39;95428.28;;;5.66;100.00
75815;BME280;70031;45.570;14.228;2024-01-15T10:25:56;95422.94;;;5.66;100.00
75815;BME280;70031;45.570;14.228;2024-01-15T10:28:00;95422.78;;;5.76;100.00
75815;BME280;70031;45.570;14.228;2024-01-15T10:30:15;95415.53;;;5.95;100.00
75815;BME280;70031;45.570;14.228;2024-01-15T10:32:16;95422.81;;;5.89;100.00
75815;BME280;70031;45.570;14.228;2024-01-15T10:34:19;95411.41;;;6.03;100.00
75815;BME280;70031;45.570;14.228;2024-01-15T10:36:22;95405.63;;;5.96;100.00
75815;BME280;70031;45.570;14.228;2024-01-15T10:38:26;95398.75;;;5.76;100.00
75815;BME280;70031;45.570;14.228;2024-01-15T10:40:27;95392.03;;;5.78;100.00
75815;BME280;70031;45.570;14.228;2024-01-15T10:42:45;95383.94;;;5.83;100.00
75815;BME280;70031;45.570;14.228;2024-01-15T10:44:53;95379.06;;;5.90;100.00
75815;BME280;70031;45.570;14.228;2024-01-15T10:47:11;95379.53;;;5.93;100.00
75815;BME280;70031;45.570;14.228;2024-01-15T10:49:12;95370.44;;;5.94;100.00
75815;BME280;70031;45.570;14.228;2024-01-15T10:51:27;95359.50;;;6.09;100.00
75815;BME280;70031;45.570;14.228;2024-01-15T10:53:28;95360.75;;;6.11;100.00
75815;BME280;70031;45.570;14.228;2024-01-15T10:55:38;95358.41;;;6.10;100.00
75815;BME280;70031;45.570;14.228;2024-01-15T10:57:47;95350.50;;;6.18;100.00
75815;BME280;70031;45.570;14.228;2024-01-15T10:59:48;95344.28;;;6.23;100.00
75815;BME280;70031;45.570;14.228;2024-01-15T11:01:54;95330.72;;;6.47;100.00
75815;BME280;70031;45.570;14.228;2024-01-15T11:03:55;95338.31;;;6.54;100.00
75815;BME280;70031;45.570;14.228;2024-01-15T11:08:07;95335.63;;;6.54;100.00
75815;BME280;70031;45.570;14.228;2024-01-15T11:10:08;95338.50;;;6.57;100.00
75815;BME280;70031;45.570;14.228;2024-01-15T11:12:11;95338.81;;;6.56;100.00
75815;BME280;70031;45.570;14.228;2024-01-15T11:19:02;95337.75;;;6.29;100.00
75815;BME280;70031;45.570;14.228;2024-01-15T11:23:41;95337.34;;;6.22;100.00
75815;BME280;70031;45.570;14.228;2024-01-15T11:25:37;95331.59;;;6.29;100.00
75815;BME280;70031;45.570;14.228;2024-01-15T11:27:49;95338.94;;;6.23;100.00
75815;BME280;70031;45.570;14.228;2024-01-15T11:30:02;95343.38;;;6.28;100.00
75815;BME280;70031;45.570;14.228;2024-01-15T11:32:15;95341.88;;;6.35;100.00
75815;BME280;70031;45.570;14.228;2024-01-15T11:34:17;95340.41;;;6.29;100.00
75815;BME280;70031;45.570;14.228;2024-01-15T11:36:17;95343.38;;;6.28;100.00
75815;BME280;70031;45.570;14.228;2024-01-15T11:38:27;95332.91;;;6.31;100.00
75815;BME280;70031;45.570;14.228;2024-01-15T11:40:47;95323.56;;;6.42;100.00
75815;BME280;70031;45.570;14.228;2024-01-15T11:45:03;95320.53;;;7.21;100.00
75815;BME280;70031;45.570;14.228;2024-01-15T11:47:10;95324.06;;;7.30;100.00
75815;BME280;70031;45.570;14.228;2024-01-15T11:51:48;95323.16;;;6.63;100.00